sensor_id;sensor_type;location;lat;lon;timestamp;P1;durP1;ratioP1;P2;durP2;ratioP2
45540;SDS011;31265;49.680;8.608;2024-03-06T00:01:13;5.32;;;3.08;;
45540;SDS011;31265;49.680;8.608;2024-03-06T00:06:10;4.60;;;3.25;;
45540;SDS011;31265;49.680;8.608;2024-03-06T00:08:38;10.75;;;4.13;;
45540;SDS011;31265;49.680;8.608;2024-03-06T00:11:07;5.30;;;2.67;;
45540;SDS011;31265;49.680;8.608;2024-03-06T00:13:36;6.30;;;3.03;;
45540;SDS011;31265;49.680;8.608;2024-03-06T00:16:04;17.40;;;3.67;;
45540;SDS011;31265;49.680;8.608;2024-03-06T00:18:34;7.67;;;3.00;;
45540;SDS011;31265;49.680;8.608;2024-03-06T00:21:03;6.20;;;2.70;;
45540;SDS011;31265;49.680;8.608;2024-03-06T00:23:31;9.65;;;3.45;;
45540;SDS011;31265;49.680;8.608;2024-03-06T00:26:00;6.72;;;2.40;;
45540;SDS011;31265;49.680;8.608;2024-03-06T00:28:29;7.55;;;3.70;;
45540;SDS011;31265;49.680;8.608;2024-03-06T00:30:57;7.53;;;2.92;;
45540;SDS011;31265;49.680;8.608;2024-03-06T00:33:26;6.68;;;2.83;;
45540;SDS011;31265;49.680;8.608;2024-03-06T00:35:56;6.50;;;2.40;;
45540;SDS011;31265;49.680;8.608;2024-03-06T00:38:24;9.00;;;3.17;;
45540;SDS011;31265;49.680;8.608;2024-03-06T00:40:52;7.32;;;2.40;;
45540;SDS011;31265;49.680;8.608;2024-03-06T00:43:21;5.10;;;3.03;;
45540;SDS011;31265;49.680;8.608;2024-03-06T00:45:50;16.05;;;3.00;;
45540;SDS011;31265;49.680;8.608;2024-03-06T00:48:18;6.18;;;3.30;;
45540;SDS011;31265;49.680;8.608;2024-03-06T00:50:46;10.30;;;3.05;;
45540;SDS011;31265;49.680;8.608;2024-03-06T00:53:16;5.40;;;2.53;;
45540;SDS011;31265;49.680;8.608;2024-03-06T00:58:13;5.80;;;2.88;;
45540;SDS011;31265;49.680;8.608;2024-03-06T01:00:42;8.98;;;2.95;;
45540;SDS011;31265;49.680;8.608;2024-03-06T01:03:10;6.03;;;2.40;;
45540;SDS011;31265;49.680;8.608;2024-03-06T01:05:39;6.05;;;2.83;;
45540;SDS011;31265;49.680;8.608;2024-03-06T01:08:07;7.32;;;2.95;;
45540;SDS011;31265;49.680;8.608;2024-03-06T01:10:38;14.70;;;3.22;;
45540;SDS011;31265;49.680;8.608;2024-03-06T01:13:07;6.47;;;2.60;;
45540;SDS011;31265;49.680;8.608;2024-03-06T01:15:37;7.68;;;2.25;;
45540;SDS011;31265;49.680;8.608;2024-03-06T01:18:06;5.90;;;2.85;;
45540;SDS011;31265;49.680;8.608;2024-03-06T01:20:35;5.90;;;2.00;;
45540;SDS011;31265;49.680;8.608;2024-03-06T01:23:04;4.38;;;2.15;;
45540;SDS011;31265;49.680;8.608;2024-03-06T01:25:33;4.40;;;2.47;;
45540;SDS011;31265;49.680;8.608;2024-03-06T01:28:04;5.60;;;2.67;;
45540;SDS011;31265;49.680;8.608;2024-03-06T01:30:33;4.53;;;2.08;;
45540;SDS011;31265;49.680;8.608;2024-03-06T01:33:01;7.40;;;2.00;;
45540;SDS011;31265;49.680;8.608;2024-03-06T01:35:31;6.40;;;2.60;;
45540;SDS011;31265;49.680;8.608;2024-03-06T01:38:00;4.50;;;2.17;;
45540;SDS011;31265;49.680;8.608;2024-03-06T01:40:29;5.60;;;2.73;;
45540;SDS011;31265;49.680;8.608;2024-03-06T01:42:57;4.20;;;2.22;;
45540;SDS011;31265;49.680;8.608;2024-03-06T01:45:27;4.80;;;2.25;;
45540;SDS011;31265;49.680;8.608;2024-03-06T01:50:24;6.47;;;2.60;;
45540;SDS011;31265;49.680;8.608;2024-03-06T01:52:52;4.30;;;1.98;;
45540;SDS011;31265;49.680;8.608;2024-03-06T01:55:21;6.97;;;2.30;;
45540;SDS011;31265;49.680;8.608;2024-03-06T01:57:49;7.90;;;2.80;;
45540;SDS011;31265;49.680;8.608;2024-03-06T02:00:17;7.60;;;3.58;;
45540;SDS011;31265;49.680;8.608;2024-03-06T02:02:47;5.47;;;2.33;;
45540;SDS011;31265;49.680;8.608;2024-03-06T02:07:44;5.75;;;3.03;;
45540;SDS011;31265;49.680;8.608;2024-03-06T02:10:14;7.35;;;2.60;;
45540;SDS011;31265;49.680;8.608;2024-03-06T02:12:43;5.70;;;2.45;;
45540;SDS011;31265;49.680;8.608;2024-03-06T02:15:12;5.47;;;2.73;;
45540;SDS011;31265;49.680;8.608;2024-03-06T02:17:41;5.32;;;1.90;;
45540;SDS011;31265;49.680;8.608;2024-03-06T02:20:12;4.47;;;1.92;;
45540;SDS011;31265;49.680;8.608;2024-03-06T02:22:44;11.43;;;2.88;;
45540;SDS011;31265;49.680;8.608;2024-03-06T02:25:13;3.72;;;1.90;;
45540;SDS011;31265;49.680;8.608;2024-03-06T02:27:42;3.50;;;2.13;;
45540;SDS011;31265;49.680;8.608;2024-03-06T02:30:11;5.88;;;2.75;;
45540;SDS011;31265;49.680;8.608;2024-03-06T02:32:40;5.10;;;2.28;;
45540;SDS011;31265;49.680;8.608;2024-03-06T02:35:10;3.20;;;1.63;;
45540;SDS011;31265;49.680;8.608;2024-03-06T02:37:41;8.10;;;2.75;;
45540;SDS011;31265;49.680;8.608;2024-03-06T02:40:11;4.97;;;2.47;;
45540;SDS011;31265;49.680;8.608;2024-03-06T02:45:07;3.95;;;1.92;;
45540;SDS011;31265;49.680;8.608;2024-03-06T02:47:36;7.88;;;3.45;;
45540;SDS011;31265;49.680;8.608;2024-03-06T02:50:05;4.70;;;2.50;;
45540;SDS011;31265;49.680;8.608;2024-03-06T02:52:35;5.97;;;2.47;;
45540;SDS011;31265;49.680;8.608;2024-03-06T02:55:03;5.55;;;2.65;;
45540;SDS011;31265;49.680;8.608;2024-03-06T02:57:35;4.55;;;2.28;;
45540;SDS011;31265;49.680;8.608;2024-03-06T03:02:36;4.47;;;2.30;;
45540;SDS011;31265;49.680;8.608;2024-03-06T03:05:04;7.10;;;2.90;;
45540;SDS011;31265;49.680;8.608;2024-03-06T03:07:33;10.45;;;2.00;;
45540;SDS011;31265;49.680;8.608;2024-03-06T03:10:02;7.07;;;2.65;;
45540;SDS011;31265;49.680;8.608;2024-03-06T03:12:31;8.60;;;3.08;;
45540;SDS011;31265;49.680;8.608;2024-03-06T03:15:02;6.30;;;3.13;;
45540;SDS011;31265;49.680;8.608;2024-03-06T03:17:31;5.40;;;3.13;;
45540;SDS011;31265;49.680;8.608;2024-03-06T03:20:00;7.10;;;2.60;;
45540;SDS011;31265;49.680;8.608;2024-03-06T03:22:37;5.35;;;2.47;;
45540;SDS011;31265;49.680;8.608;2024-03-06T03:25:07;6.85;;;2.22;;
45540;SDS011;31265;49.680;8.608;2024-03-06T03:27:37;9.73;;;2.78;;
45540;SDS011;31265;49.680;8.608;2024-03-06T03:32:38;3.72;;;1.90;;
45540;SDS011;31265;49.680;8.608;2024-03-06T03:35:07;4.35;;;2.40;;
45540;SDS011;31265;49.680;8.608;2024-03-06T03:37:36;10.20;;;3.03;;
45540;SDS011;31265;49.680;8.608;2024-03-06T03:40:05;6.22;;;3.03;;
45540;SDS011;31265;49.680;8.608;2024-03-06T03:42:35;4.53;;;2.70;;
45540;SDS011;31265;49.680;8.608;2024-03-06T03:45:04;6.63;;;2.92;;
45540;SDS011;31265;49.680;8.608;2024-03-06T03:47:34;6.63;;;2.85;;
45540;SDS011;31265;49.680;8.608;2024-03-06T03:52:37;6.03;;;2.58;;
45540;SDS011;31265;49.680;8.608;2024-03-06T03:55:09;6.28;;;3.08;;
45540;SDS011;31265;49.680;8.608;2024-03-06T03:57:38;10.95;;;2.90;;
45540;SDS011;31265;49.680;8.608;2024-03-06T04:00:07;7.77;;;2.97;;
45540;SDS011;31265;49.680;8.608;2024-03-06T04:02:40;6.57;;;2.20;;
45540;SDS011;31265;49.680;8.608;2024-03-06T04:05:09;7.25;;;2.85;;
45540;SDS011;31265;49.680;8.608;2024-03-06T04:07:38;4.78;;;2.17;;
45540;SDS011;31265;49.680;8.608;2024-03-06T04:10:06;6.20;;;2.97;;
45540;SDS011;31265;49.680;8.608;2024-03-06T04:12:37;5.45;;;2.47;;
45540;SDS011;31265;49.680;8.608;2024-03-06T04:15:07;7.82;;;2.80;;
45540;SDS011;31265;49.680;8.608;2024-03-06T04:17:36;7.03;;;2.92;;
45540;SDS011;31265;49.680;8.608;2024-03-06T04:20:06;6.78;;;3.10;;
45540;SDS011;31265;49.680;8.608;2024-03-06T04:22:39;6.60;;;3.22;;
45540;SDS011;31265;49.680;8.608;2024-03-06T04:25:08;7.25;;;2.75;;
45540;SDS011;31265;49.680;8.608;2024-03-06T04:27:37;4.95;;;2.35;;
45540;SDS011;31265;49.680;8.608;2024-03-06T04:30:06;5.77;;;3.20;;
45540;SDS011;31265;49.680;8.608;2024-03-06T04:32:36;6.25;;;2.90;;
45540;SDS011;31265;49.680;8.608;2024-03-06T04:35:06;5.35;;;2.83;;
45540;SDS011;31265;49.680;8.608;2024-03-06T04:37:36;8.75;;;2.50;;
45540;SDS011;31265;49.680;8.608;2024-03-06T04:40:05;7.47;;;2.83;;
45540;SDS011;31265;49.680;8.608;2024-03-06T04:42:35;6.43;;;3.30;;
45540;SDS011;31265;49.680;8.608;2024-03-06T04:45:04;7.78;;;3.67;;
45540;SDS011;31265;49.680;8.608;2024-03-06T04:47:38;12.32;;;4.93;;
45540;SDS011;31265;49.680;8.608;2024-03-06T04:50:09;12.50;;;6.05;;
45540;SDS011;31265;49.680;8.608;2024-03-06T04:52:38;11.20;;;4.63;;
45540;SDS011;31265;49.680;8.608;2024-03-06T04:55:07;5.72;;;3.13;;
45540;SDS011;31265;49.680;8.608;2024-03-06T04:57:38;5.70;;;3.13;;
45540;SDS011;31265;49.680;8.608;2024-03-06T05:00:08;6.07;;;2.42;;
45540;SDS011;31265;49.680;8.608;2024-03-06T05:02:38;7.45;;;3.22;;
45540;SDS011;31265;49.680;8.608;2024-03-06T05:05:25;4.75;;;2.97;;
45540;SDS011;31265;49.680;8.608;2024-03-06T05:08:11;10.73;;;2.63;;
45540;SDS011;31265;49.680;8.608;2024-03-06T05:10:56;8.02;;;3.30;;
45540;SDS011;31265;49.680;8.608;2024-03-06T05:13:45;6.78;;;2.75;;
45540;SDS011;31265;49.680;8.608;2024-03-06T05:16:30;9.35;;;3.28;;
45540;SDS011;31265;49.680;8.608;2024-03-06T05:19:16;5.80;;;2.83;;
45540;SDS011;31265;49.680;8.608;2024-03-06T05:22:04;5.68;;;2.42;;
45540;SDS011;31265;49.680;8.608;2024-03-06T05:24:50;9.45;;;3.88;;
45540;SDS011;31265;49.680;8.608;2024-03-06T05:27:37;7.40;;;2.75;;
45540;SDS011;31265;49.680;8.608;2024-03-06T05:30:23;7.57;;;2.60;;
45540;SDS011;31265;49.680;8.608;2024-03-06T05:33:09;7.47;;;3.35;;
45540;SDS011;31265;49.680;8.608;2024-03-06T05:35:56;8.80;;;3.97;;
45540;SDS011;31265;49.680;8.608;2024-03-06T05:38:44;5.90;;;3.08;;
45540;SDS011;31265;49.680;8.608;2024-03-06T05:41:30;7.07;;;2.72;;
45540;SDS011;31265;49.680;8.608;2024-03-06T05:44:16;8.45;;;3.63;;
45540;SDS011;31265;49.680;8.608;2024-03-06T05:47:02;5.03;;;2.85;;
45540;SDS011;31265;49.680;8.608;2024-03-06T05:49:48;4.65;;;2.22;;
45540;SDS011;31265;49.680;8.608;2024-03-06T05:52:35;7.90;;;3.35;;
45540;SDS011;31265;49.680;8.608;2024-03-06T05:55:23;5.78;;;3.17;;
45540;SDS011;31265;49.680;8.608;2024-03-06T05:58:08;5.30;;;3.05;;
45540;SDS011;31265;49.680;8.608;2024-03-06T06:00:41;8.77;;;3.90;;
45540;SDS011;31265;49.680;8.608;2024-03-06T06:03:10;8.03;;;3.20;;
45540;SDS011;31265;49.680;8.608;2024-03-06T06:05:39;4.68;;;2.47;;
45540;SDS011;31265;49.680;8.608;2024-03-06T06:08:08;7.78;;;3.45;;
45540;SDS011;31265;49.680;8.608;2024-03-06T06:10:38;6.10;;;2.47;;
45540;SDS011;31265;49.680;8.608;2024-03-06T06:13:07;5.45;;;2.75;;
45540;SDS011;31265;49.680;8.608;2024-03-06T06:15:35;7.85;;;3.20;;
45540;SDS011;31265;49.680;8.608;2024-03-06T06:18:04;5.83;;;2.87;;
45540;SDS011;31265;49.680;8.608;2024-03-06T06:20:33;7.43;;;3.07;;
45540;SDS011;31265;49.680;8.608;2024-03-06T06:23:01;9.32;;;2.72;;
45540;SDS011;31265;49.680;8.608;2024-03-06T06:25:30;6.87;;;3.00;;
45540;SDS011;31265;49.680;8.608;2024-03-06T06:28:00;12.98;;;3.70;;
45540;SDS011;31265;49.680;8.608;2024-03-06T06:30:29;8.18;;;3.70;;
45540;SDS011;31265;49.680;8.608;2024-03-06T06:32:57;10.77;;;3.53;;
45540;SDS011;31265;49.680;8.608;2024-03-06T06:35:25;6.97;;;3.20;;
45540;SDS011;31265;49.680;8.608;2024-03-06T06:37:54;6.90;;;3.28;;
45540;SDS011;31265;49.680;8.608;2024-03-06T06:40:22;8.05;;;3.88;;
45540;SDS011;31265;49.680;8.608;2024-03-06T06:42:50;7.03;;;3.33;;
45540;SDS011;31265;49.680;8.608;2024-03-06T06:45:21;8.00;;;3.55;;
45540;SDS011;31265;49.680;8.608;2024-03-06T06:47:51;5.97;;;2.92;;
45540;SDS011;31265;49.680;8.608;2024-03-06T06:50:20;9.55;;;3.50;;
45540;SDS011;31265;49.680;8.608;2024-03-06T06:52:52;7.38;;;3.58;;
45540;SDS011;31265;49.680;8.608;2024-03-06T06:55:21;10.43;;;3.88;;
45540;SDS011;31265;49.680;8.608;2024-03-06T06:57:51;7.22;;;3.20;;
45540;SDS011;31265;49.680;8.608;2024-03-06T07:00:21;7.35;;;3.85;;
45540;SDS011;31265;49.680;8.608;2024-03-06T07:02:51;10.00;;;3.80;;
45540;SDS011;31265;49.680;8.608;2024-03-06T07:05:20;5.28;;;3.47;;
45540;SDS011;31265;49.680;8.608;2024-03-06T07:07:49;7.37;;;2.83;;
45540;SDS011;31265;49.680;8.608;2024-03-06T07:10:21;7.80;;;3.88;;
45540;SDS011;31265;49.680;8.608;2024-03-06T07:12:50;6.82;;;3.50;;
45540;SDS011;31265;49.680;8.608;2024-03-06T07:15:19;6.95;;;3.63;;
45540;SDS011;31265;49.680;8.608;2024-03-06T07:17:49;6.97;;;3.25;;
45540;SDS011;31265;49.680;8.608;2024-03-06T07:20:18;11.45;;;4.43;;
45540;SDS011;31265;49.680;8.608;2024-03-06T07:22:47;11.55;;;6.07;;
45540;SDS011;31265;49.680;8.608;2024-03-06T07:25:18;21.73;;;7.50;;
45540;SDS011;31265;49.680;8.608;2024-03-06T07:27:48;11.93;;;4.75;;
45540;SDS011;31265;49.680;8.608;2024-03-06T07:30:16;11.32;;;4.55;;
45540;SDS011;31265;49.680;8.608;2024-03-06T07:32:45;9.10;;;4.05;;
45540;SDS011;31265;49.680;8.608;2024-03-06T07:35:15;10.38;;;3.85;;
45540;SDS011;31265;49.680;8.608;2024-03-06T07:37:44;12.15;;;5.40;;
45540;SDS011;31265;49.680;8.608;2024-03-06T07:40:14;10.50;;;4.03;;
45540;SDS011;31265;49.680;8.608;2024-03-06T07:42:42;10.00;;;3.90;;
45540;SDS011;31265;49.680;8.608;2024-03-06T07:45:11;7.95;;;4.00;;
45540;SDS011;31265;49.680;8.608;2024-03-06T07:47:39;7.80;;;3.88;;
45540;SDS011;31265;49.680;8.608;2024-03-06T07:50:09;6.78;;;3.72;;
45540;SDS011;31265;49.680;8.608;2024-03-06T07:52:41;9.20;;;3.60;;
45540;SDS011;31265;49.680;8.608;2024-03-06T07:55:10;6.88;;;3.28;;
45540;SDS011;31265;49.680;8.608;2024-03-06T07:57:38;4.85;;;3.20;;
45540;SDS011;31265;49.680;8.608;2024-03-06T08:00:11;7.43;;;2.92;;
45540;SDS011;31265;49.680;8.608;2024-03-06T08:02:42;11.07;;;3.22;;
45540;SDS011;31265;49.680;8.608;2024-03-06T08:05:11;7.57;;;3.38;;
45540;SDS011;31265;49.680;8.608;2024-03-06T08:07:42;5.78;;;2.88;;
45540;SDS011;31265;49.680;8.608;2024-03-06T08:10:12;4.75;;;2.72;;
45540;SDS011;31265;49.680;8.608;2024-03-06T08:12:41;6.25;;;2.47;;
45540;SDS011;31265;49.680;8.608;2024-03-06T08:15:11;5.65;;;2.80;;
45540;SDS011;31265;49.680;8.608;2024-03-06T08:20:10;4.50;;;2.42;;
45540;SDS011;31265;49.680;8.608;2024-03-06T08:22:41;5.20;;;3.08;;
45540;SDS011;31265;49.680;8.608;2024-03-06T08:25:11;7.47;;;3.85;;
45540;SDS011;31265;49.680;8.608;2024-03-06T08:27:40;5.30;;;3.05;;
45540;SDS011;31265;49.680;8.608;2024-03-06T08:30:10;10.60;;;3.55;;
45540;SDS011;31265;49.680;8.608;2024-03-06T08:32:39;7.13;;;3.50;;
45540;SDS011;31265;49.680;8.608;2024-03-06T08:35:12;3.70;;;1.98;;
45540;SDS011;31265;49.680;8.608;2024-03-06T08:37:47;5.75;;;2.67;;
45540;SDS011;31265;49.680;8.608;2024-03-06T08:42:44;4.55;;;2.58;;
45540;SDS011;31265;49.680;8.608;2024-03-06T08:45:14;6.57;;;3.38;;
45540;SDS011;31265;49.680;8.608;2024-03-06T08:47:43;5.85;;;2.63;;
45540;SDS011;31265;49.680;8.608;2024-03-06T08:50:12;5.70;;;2.50;;
45540;SDS011;31265;49.680;8.608;2024-03-06T08:52:41;7.60;;;2.50;;
45540;SDS011;31265;49.680;8.608;2024-03-06T08:55:11;7.50;;;2.72;;
45540;SDS011;31265;49.680;8.608;2024-03-06T09:00:08;4.75;;;2.17;;
45540;SDS011;31265;49.680;8.608;2024-03-06T09:02:39;6.20;;;2.88;;
45540;SDS011;31265;49.680;8.608;2024-03-06T09:05:09;9.50;;;3.60;;
45540;SDS011;31265;49.680;8.608;2024-03-06T09:07:40;8.73;;;3.97;;
45540;SDS011;31265;49.680;8.608;2024-03-06T09:10:09;5.40;;;2.77;;
45540;SDS011;31265;49.680;8.608;2024-03-06T09:12:39;6.25;;;2.80;;
45540;SDS011;31265;49.680;8.608;2024-03-06T09:15:08;8.35;;;3.33;;
45540;SDS011;31265;49.680;8.608;2024-03-06T09:17:39;5.70;;;2.75;;
45540;SDS011;31265;49.680;8.608;2024-03-06T09:20:09;5.28;;;2.38;;
45540;SDS011;31265;49.680;8.608;2024-03-06T09:22:41;8.82;;;3.33;;
45540;SDS011;31265;49.680;8.608;2024-03-06T09:25:10;4.90;;;2.95;;
45540;SDS011;31265;49.680;8.608;2024-03-06T09:27:43;6.97;;;2.95;;
45540;SDS011;31265;49.680;8.608;2024-03-06T09:30:12;5.78;;;2.47;;
45540;SDS011;31265;49.680;8.608;2024-03-06T09:32:43;5.47;;;2.72;;
45540;SDS011;31265;49.680;8.608;2024-03-06T09:35:11;5.40;;;3.03;;
45540;SDS011;31265;49.680;8.608;2024-03-06T09:37:45;5.40;;;2.95;;
45540;SDS011;31265;49.680;8.608;2024-03-06T09:40:21;5.32;;;2.78;;
45540;SDS011;31265;49.680;8.608;2024-03-06T09:42:52;6.55;;;3.13;;
45540;SDS011;31265;49.680;8.608;2024-03-06T09:45:21;6.07;;;2.50;;
45540;SDS011;31265;49.680;8.608;2024-03-06T09:47:50;10.20;;;3.97;;
45540;SDS011;31265;49.680;8.608;2024-03-06T09:50:22;7.90;;;3.35;;
45540;SDS011;31265;49.680;8.608;2024-03-06T09:52:53;6.25;;;3.15;;
45540;SDS011;31265;49.680;8.608;2024-03-06T09:55:23;7.32;;;3.28;;
45540;SDS011;31265;49.680;8.608;2024-03-06T09:57:56;5.65;;;2.90;;
45540;SDS011;31265;49.680;8.608;2024-03-06T10:00:24;8.85;;;4.00;;
45540;SDS011;31265;49.680;8.608;2024-03-06T10:02:55;14.80;;;4.18;;
45540;SDS011;31265;49.680;8.608;2024-03-06T10:05:28;8.55;;;4.30;;
45540;SDS011;31265;49.680;8.608;2024-03-06T10:07:59;7.22;;;3.72;;
45540;SDS011;31265;49.680;8.608;2024-03-06T10:10:29;9.15;;;4.13;;
45540;SDS011;31265;49.680;8.608;2024-03-06T10:12:59;7.93;;;4.07;;
45540;SDS011;31265;49.680;8.608;2024-03-06T10:15:28;6.93;;;3.45;;
45540;SDS011;31265;49.680;8.608;2024-03-06T10:18:12;6.78;;;4.15;;
45540;SDS011;31265;49.680;8.608;2024-03-06T10:20:42;8.18;;;4.10;;
45540;SDS011;31265;49.680;8.608;2024-03-06T10:23:11;10.52;;;5.07;;
45540;SDS011;31265;49.680;8.608;2024-03-06T10:25:42;8.73;;;4.28;;
45540;SDS011;31265;49.680;8.608;2024-03-06T10:28:12;10.95;;;4.50;;
45540;SDS011;31265;49.680;8.608;2024-03-06T10:30:41;7.75;;;4.35;;
45540;SDS011;31265;49.680;8.608;2024-03-06T10:33:11;13.05;;;5.05;;
45540;SDS011;31265;49.680;8.608;2024-03-06T10:35:40;10.07;;;5.13;;
45540;SDS011;31265;49.680;8.608;2024-03-06T10:38:10;8.88;;;4.78;;
45540;SDS011;31265;49.680;8.608;2024-03-06T10:40:42;13.05;;;4.85;;
45540;SDS011;31265;49.680;8.608;2024-03-06T10:43:13;10.23;;;4.47;;
45540;SDS011;31265;49.680;8.608;2024-03-06T10:45:43;9.38;;;4.78;;
45540;SDS011;31265;49.680;8.608;2024-03-06T10:48:17;11.38;;;4.50;;
45540;SDS011;31265;49.680;8.608;2024-03-06T10:50:48;12.50;;;4.68;;
45540;SDS011;31265;49.680;8.608;2024-03-06T10:53:18;9.77;;;4.53;;
45540;SDS011;31265;49.680;8.608;2024-03-06T10:55:50;9.68;;;4.55;;
45540;SDS011;31265;49.680;8.608;2024-03-06T10:58:21;10.98;;;5.00;;
45540;SDS011;31265;49.680;8.608;2024-03-06T11:00:49;11.48;;;5.00;;
45540;SDS011;31265;49.680;8.608;2024-03-06T11:03:19;9.35;;;4.40;;
45540;SDS011;31265;49.680;8.608;2024-03-06T11:05:48;12.32;;;5.65;;
45540;SDS011;31265;49.680;8.608;2024-03-06T11:08:19;10.60;;;5.43;;
45540;SDS011;31265;49.680;8.608;2024-03-06T11:10:47;12.88;;;5.63;;
45540;SDS011;31265;49.680;8.608;2024-03-06T11:13:24;9.90;;;5.22;;
45540;SDS011;31265;49.680;8.608;2024-03-06T11:15:57;10.93;;;5.30;;
45540;SDS011;31265;49.680;8.608;2024-03-06T11:18:42;12.80;;;5.70;;
45540;SDS011;31265;49.680;8.608;2024-03-06T11:21:27;9.68;;;5.78;;
45540;SDS011;31265;49.680;8.608;2024-03-06T11:24:12;8.75;;;4.78;;
45540;SDS011;31265;49.680;8.608;2024-03-06T11:26:43;10.88;;;5.25;;
45540;SDS011;31265;49.680;8.608;2024-03-06T11:29:16;11.00;;;6.05;;
45540;SDS011;31265;49.680;8.608;2024-03-06T11:32:00;13.68;;;7.10;;
45540;SDS011;31265;49.680;8.608;2024-03-06T11:34:31;11.20;;;5.20;;
45540;SDS011;31265;49.680;8.608;2024-03-06T11:36:59;12.18;;;6.20;;
45540;SDS011;31265;49.680;8.608;2024-03-06T11:39:34;7.72;;;4.35;;
45540;SDS011;31265;49.680;8.608;2024-03-06T11:42:04;10.57;;;4.43;;
45540;SDS011;31265;49.680;8.608;2024-03-06T11:44:37;10.38;;;4.63;;
45540;SDS011;31265;49.680;8.608;2024-03-06T11:47:23;10.27;;;4.53;;
45540;SDS011;31265;49.680;8.608;2024-03-06T11:49:53;13.20;;;5.03;;
45540;SDS011;31265;49.680;8.608;2024-03-06T11:54:51;10.32;;;4.32;;
45540;SDS011;31265;49.680;8.608;2024-03-06T11:57:20;7.93;;;4.82;;
45540;SDS011;31265;49.680;8.608;2024-03-06T11:59:52;9.35;;;4.55;;
45540;SDS011;31265;49.680;8.608;2024-03-06T12:02:22;11.90;;;4.47;;
45540;SDS011;31265;49.680;8.608;2024-03-06T12:04:50;7.65;;;3.85;;
45540;SDS011;31265;49.680;8.608;2024-03-06T12:07:20;9.63;;;4.57;;
45540;SDS011;31265;49.680;8.608;2024-03-06T12:09:49;9.30;;;4.40;;
45540;SDS011;31265;49.680;8.608;2024-03-06T12:12:20;12.07;;;4.18;;
45540;SDS011;31265;49.680;8.608;2024-03-06T12:14:57;10.05;;;4.63;;
45540;SDS011;31265;49.680;8.608;2024-03-06T12:17:26;10.40;;;4.50;;
45540;SDS011;31265;49.680;8.608;2024-03-06T12:19:54;8.95;;;4.40;;
45540;SDS011;31265;49.680;8.608;2024-03-06T12:22:24;10.65;;;4.75;;
45540;SDS011;31265;49.680;8.608;2024-03-06T12:24:58;10.00;;;4.85;;
45540;SDS011;31265;49.680;8.608;2024-03-06T12:27:27;9.40;;;4.15;;
45540;SDS011;31265;49.680;8.608;2024-03-06T12:29:57;12.48;;;4.85;;
45540;SDS011;31265;49.680;8.608;2024-03-06T12:32:25;8.60;;;4.45;;
45540;SDS011;31265;49.680;8.608;2024-03-06T12:34:57;10.48;;;5.32;;
45540;SDS011;31265;49.680;8.608;2024-03-06T12:37:31;11.18;;;5.50;;
45540;SDS011;31265;49.680;8.608;2024-03-06T12:40:01;10.40;;;5.93;;
45540;SDS011;31265;49.680;8.608;2024-03-06T12:42:31;10.80;;;5.55;;
45540;SDS011;31265;49.680;8.608;2024-03-06T12:45:01;12.57;;;6.15;;
45540;SDS011;31265;49.680;8.608;2024-03-06T12:47:30;11.27;;;5.40;;
45540;SDS011;31265;49.680;8.608;2024-03-06T12:49:59;11.03;;;5.10;;
45540;SDS011;31265;49.680;8.608;2024-03-06T12:52:28;12.48;;;5.50;;
45540;SDS011;31265;49.680;8.608;2024-03-06T12:54:56;12.00;;;5.35;;
45540;SDS011;31265;49.680;8.608;2024-03-06T12:57:25;15.57;;;5.80;;
45540;SDS011;31265;49.680;8.608;2024-03-06T12:59:54;17.65;;;5.75;;
45540;SDS011;31265;49.680;8.608;2024-03-06T13:02:24;14.82;;;5.93;;
45540;SDS011;31265;49.680;8.608;2024-03-06T13:04:53;11.32;;;5.90;;
45540;SDS011;31265;49.680;8.608;2024-03-06T13:07:21;12.23;;;6.15;;
45540;SDS011;31265;49.680;8.608;2024-03-06T13:09:50;12.90;;;5.85;;
45540;SDS011;31265;49.680;8.608;2024-03-06T13:12:18;14.40;;;6.53;;
45540;SDS011;31265;49.680;8.608;2024-03-06T13:14:47;14.77;;;6.30;;
45540;SDS011;31265;49.680;8.608;2024-03-06T13:17:16;11.88;;;5.20;;
45540;SDS011;31265;49.680;8.608;2024-03-06T13:19:46;14.63;;;6.45;;
45540;SDS011;31265;49.680;8.608;2024-03-06T13:24:43;9.23;;;5.30;;
45540;SDS011;31265;49.680;8.608;2024-03-06T13:27:17;9.75;;;5.13;;
45540;SDS011;31265;49.680;8.608;2024-03-06T13:29:46;12.18;;;5.70;;
45540;SDS011;31265;49.680;8.608;2024-03-06T13:32:14;15.20;;;6.38;;
45540;SDS011;31265;49.680;8.608;2024-03-06T13:34:44;10.73;;;5.22;;
45540;SDS011;31265;49.680;8.608;2024-03-06T13:37:13;10.23;;;5.22;;
45540;SDS011;31265;49.680;8.608;2024-03-06T13:42:10;12.40;;;5.87;;
45540;SDS011;31265;49.680;8.608;2024-03-06T13:44:39;12.88;;;5.80;;
45540;SDS011;31265;49.680;8.608;2024-03-06T13:47:07;9.83;;;5.67;;
45540;SDS011;31265;49.680;8.608;2024-03-06T13:49:44;11.90;;;4.95;;
45540;SDS011;31265;49.680;8.608;2024-03-06T13:52:14;11.73;;;5.53;;
45540;SDS011;31265;49.680;8.608;2024-03-06T13:54:47;11.57;;;4.57;;
45540;SDS011;31265;49.680;8.608;2024-03-06T13:57:15;10.95;;;5.18;;
45540;SDS011;31265;49.680;8.608;2024-03-06T13:59:44;10.15;;;5.00;;
45540;SDS011;31265;49.680;8.608;2024-03-06T14:02:12;14.23;;;4.97;;
45540;SDS011;31265;49.680;8.608;2024-03-06T14:04:41;13.00;;;5.72;;
45540;SDS011;31265;49.680;8.608;2024-03-06T14:07:10;12.45;;;5.60;;
45540;SDS011;31265;49.680;8.608;2024-03-06T14:09:41;8.70;;;4.65;;
45540;SDS011;31265;49.680;8.608;2024-03-06T14:12:09;13.88;;;5.65;;
45540;SDS011;31265;49.680;8.608;2024-03-06T14:14:38;9.32;;;4.10;;
45540;SDS011;31265;49.680;8.608;2024-03-06T14:17:06;10.93;;;4.93;;
45540;SDS011;31265;49.680;8.608;2024-03-06T14:19:35;8.88;;;4.78;;
45540;SDS011;31265;49.680;8.608;2024-03-06T14:22:04;10.88;;;4.95;;
45540;SDS011;31265;49.680;8.608;2024-03-06T14:24:35;9.82;;;4.75;;
45540;SDS011;31265;49.680;8.608;2024-03-06T14:27:05;8.80;;;4.68;;
45540;SDS011;31265;49.680;8.608;2024-03-06T14:29:34;14.52;;;5.35;;
45540;SDS011;31265;49.680;8.608;2024-03-06T14:32:02;8.50;;;3.83;;
45540;SDS011;31265;49.680;8.608;2024-03-06T14:34:31;12.50;;;5.18;;
45540;SDS011;31265;49.680;8.608;2024-03-06T14:36:59;12.02;;;5.47;;
45540;SDS011;31265;49.680;8.608;2024-03-06T14:39:28;10.77;;;4.82;;
45540;SDS011;31265;49.680;8.608;2024-03-06T14:41:56;12.98;;;6.22;;
45540;SDS011;31265;49.680;8.608;2024-03-06T14:44:26;10.57;;;4.57;;
45540;SDS011;31265;49.680;8.608;2024-03-06T14:46:55;13.27;;;5.07;;
45540;SDS011;31265;49.680;8.608;2024-03-06T14:49:24;9.30;;;4.55;;
45540;SDS011;31265;49.680;8.608;2024-03-06T14:51:53;11.63;;;5.00;;
45540;SDS011;31265;49.680;8.608;2024-03-06T14:54:22;12.20;;;5.55;;
45540;SDS011;31265;49.680;8.608;2024-03-06T14:56:53;12.65;;;5.65;;
45540;SDS011;31265;49.680;8.608;2024-03-06T14:59:21;11.02;;;4.85;;
45540;SDS011;31265;49.680;8.608;2024-03-06T15:01:51;12.57;;;5.30;;
45540;SDS011;31265;49.680;8.608;2024-03-06T15:04:20;9.77;;;4.53;;
45540;SDS011;31265;49.680;8.608;2024-03-06T15:06:48;10.48;;;5.00;;
45540;SDS011;31265;49.680;8.608;2024-03-06T15:09:22;11.13;;;4.70;;
45540;SDS011;31265;49.680;8.608;2024-03-06T15:11:52;14.85;;;5.72;;
45540;SDS011;31265;49.680;8.608;2024-03-06T15:14:22;14.55;;;5.25;;
45540;SDS011;31265;49.680;8.608;2024-03-06T15:16:53;12.98;;;5.55;;
45540;SDS011;31265;49.680;8.608;2024-03-06T15:19:22;11.20;;;5.35;;
45540;SDS011;31265;49.680;8.608;2024-03-06T15:21:51;9.80;;;4.90;;
45540;SDS011;31265;49.680;8.608;2024-03-06T15:24:19;14.02;;;5.75;;
45540;SDS011;31265;49.680;8.608;2024-03-06T15:26:47;14.40;;;6.22;;
45540;SDS011;31265;49.680;8.608;2024-03-06T15:29:16;13.77;;;5.40;;
45540;SDS011;31265;49.680;8.608;2024-03-06T15:31:45;13.18;;;6.10;;
45540;SDS011;31265;49.680;8.608;2024-03-06T15:34:15;12.32;;;6.22;;
45540;SDS011;31265;49.680;8.608;2024-03-06T15:36:44;15.25;;;6.13;;
45540;SDS011;31265;49.680;8.608;2024-03-06T15:39:12;13.38;;;5.45;;